createdAt,value
2022-12-15T00:01:47.434Z,94.40
2022-12-15T00:04:32.980Z,94.70
2022-12-15T00:07:18.505Z,95.50
2022-12-15T00:10:03.887Z,96.30
2022-12-15T00:12:49.163Z,96.60
2022-12-15T00:15:35.300Z,96.60
2022-12-15T00:18:26.767Z,96.40
2022-12-15T00:21:16.785Z,95.60
2022-12-15T00:24:02.173Z,95.50
2022-12-15T00:26:47.481Z,95.20
2022-12-15T00:29:32.759Z,95.40
2022-12-15T00:32:18.051Z,95.70
2022-12-15T00:35:03.577Z,95.40
2022-12-15T00:37:49.251Z,95.50
2022-12-15T00:40:16.088Z,96.10
2022-12-15T00:42:42.893Z,96.20
2022-12-15T00:45:10.295Z,96.60
2022-12-15T00:47:37.324Z,96.20
2022-12-15T00:50:23.294Z,96.20
2022-12-15T00:53:10.331Z,96.40
2022-12-15T00:55:55.861Z,96.00
2022-12-15T00:58:41.454Z,95.70
2022-12-15T01:01:28.620Z,96.20
2022-12-15T01:04:14.525Z,96.50
2022-12-15T01:07:00.434Z,96.60
2022-12-15T01:09:45.753Z,96.30
2022-12-15T01:12:30.942Z,96.60
2022-12-15T01:15:16.311Z,95.50
2022-12-15T01:18:01.608Z,95.40
2022-12-15T01:20:32.602Z,95.50
2022-12-15T01:22:59.496Z,96.20
2022-12-15T01:25:27.491Z,96.60
2022-12-15T01:27:54.513Z,96.60
2022-12-15T01:30:31.664Z,95.80
2022-12-15T01:32:58.384Z,95.70
2022-12-15T01:35:27.656Z,94.70
2022-12-15T01:37:54.416Z,94.60
2022-12-15T01:40:40.029Z,94.80
2022-12-15T01:43:13.767Z,94.40
2022-12-15T01:45:51.913Z,94.80
2022-12-15T01:48:50.869Z,95.20
2022-12-15T01:51:32.702Z,95.50
2022-12-15T01:54:14.822Z,95.10
2022-12-15T01:56:45.836Z,95.40
2022-12-15T01:59:17.016Z,95.70
2022-12-15T02:01:43.889Z,95.30
2022-12-15T02:04:19.540Z,95.30
2022-12-15T02:06:46.360Z,94.90
2022-12-15T02:09:13.501Z,95.90
2022-12-15T02:11:43.472Z,95.90
2022-12-15T02:14:12.040Z,96.20
2022-12-15T02:16:58.122Z,96.50
2022-12-15T02:19:53.482Z,96.60
2022-12-15T02:22:52.395Z,96.60
2022-12-15T02:25:57.141Z,96.60
2022-12-15T02:28:48.517Z,96.60
2022-12-15T02:31:35.667Z,96.60
2022-12-15T02:34:38.577Z,96.60
2022-12-15T02:37:10.278Z,96.60
2022-12-15T02:39:37.126Z,96.10
2022-12-15T02:42:04.030Z,96.50
2022-12-15T02:44:43.553Z,96.50
2022-12-15T02:47:18.770Z,96.00
2022-12-15T02:50:13.355Z,96.20
2022-12-15T02:52:58.625Z,96.10
2022-12-15T02:56:10.767Z,96.20
2022-12-15T02:59:02.907Z,96.20
2022-12-15T03:01:40.055Z,96.60
2022-12-15T03:04:12.029Z,96.60
2022-12-15T03:06:39.518Z,96.60
2022-12-15T03:09:06.183Z,96.60
2022-12-15T03:11:33.289Z,96.60
2022-12-15T03:14:00.153Z,96.60
2022-12-15T03:16:26.974Z,96.60
2022-12-15T03:18:53.945Z,96.60
2022-12-15T03:21:20.720Z,96.60
2022-12-15T03:23:47.441Z,96.60
2022-12-15T03:26:14.201Z,96.60
2022-12-15T03:28:40.971Z,96.60
2022-12-15T03:31:07.684Z,96.60
2022-12-15T03:33:40.990Z,96.60
2022-12-15T03:36:08.173Z,96.60
2022-12-15T03:38:34.933Z,96.60
2022-12-15T03:41:01.754Z,96.60
2022-12-15T03:43:28.939Z,96.60
2022-12-15T03:45:55.969Z,96.50
2022-12-15T03:48:22.739Z,96.60
2022-12-15T03:50:50.204Z,96.60
2022-12-15T03:53:17.357Z,96.60
2022-12-15T03:55:44.118Z,96.20
2022-12-15T03:58:10.912Z,96.20
2022-12-15T04:00:39.290Z,96.10
2022-12-15T04:03:06.270Z,96.40
2022-12-15T04:05:34.745Z,96.30
2022-12-15T04:08:02.013Z,96.50
2022-12-15T04:10:34.516Z,96.20
2022-12-15T04:13:07.058Z,96.40
2022-12-15T04:15:36.753Z,96.50
2022-12-15T04:18:05.667Z,96.20
2022-12-15T04:20:33.161Z,95.90
2022-12-15T04:23:00.583Z,95.90
2022-12-15T04:25:52.556Z,95.90
2022-12-15T04:28:38.283Z,95.70
2022-12-15T04:31:29.226Z,96.00
2022-12-15T04:34:19.192Z,95.70
2022-12-15T04:37:08.034Z,95.50
2022-12-15T04:39:55.906Z,95.50
2022-12-15T04:42:41.354Z,95.90
2022-12-15T04:45:28.073Z,96.10
2022-12-15T04:48:20.994Z,95.90
2022-12-15T04:51:06.494Z,95.70
2022-12-15T04:53:52.116Z,96.00
2022-12-15T04:56:37.512Z,95.90
2022-12-15T04:59:23.273Z,96.30
2022-12-15T05:02:09.157Z,96.40
2022-12-15T05:04:54.618Z,96.60
2022-12-15T05:07:46.587Z,96.60
2022-12-15T05:10:32.121Z,96.60
2022-12-15T05:13:32.453Z,96.60
2022-12-15T05:16:17.961Z,96.60
2022-12-15T05:19:03.293Z,96.60
2022-12-15T05:21:48.620Z,96.60
2022-12-15T05:24:34.218Z,96.60
2022-12-15T05:27:19.652Z,96.60
2022-12-15T05:30:04.978Z,96.60
2022-12-15T05:32:33.238Z,96.60
2022-12-15T05:35:01.307Z,96.60
2022-12-15T05:37:28.090Z,96.60
2022-12-15T05:39:54.897Z,96.60
2022-12-15T05:42:21.814Z,96.60
2022-12-15T05:44:48.888Z,96.60
2022-12-15T05:47:16.644Z,96.60
2022-12-15T05:49:43.562Z,96.60
2022-12-15T05:52:10.262Z,96.60
2022-12-15T05:54:37.109Z,96.60
2022-12-15T05:57:10.575Z,96.60
2022-12-15T05:59:41.199Z,96.60
2022-12-15T06:02:08.117Z,96.60
2022-12-15T06:04:34.930Z,96.60
2022-12-15T06:07:01.868Z,96.60
2022-12-15T06:09:31.426Z,96.60
2022-12-15T06:11:58.289Z,96.60
2022-12-15T06:14:25.029Z,96.60
2022-12-15T06:16:51.918Z,96.40
2022-12-15T06:19:19.456Z,96.60
2022-12-15T06:21:46.233Z,96.60
2022-12-15T06:24:19.315Z,96.60
2022-12-15T06:26:52.779Z,96.60
2022-12-15T06:29:19.563Z,96.60
2022-12-15T06:31:46.843Z,96.60
2022-12-15T06:34:16.434Z,96.40
2022-12-15T06:36:44.240Z,96.60
2022-12-15T06:39:15.842Z,96.40
2022-12-15T06:41:43.381Z,96.40
2022-12-15T06:44:14.255Z,96.60
2022-12-15T06:46:41.456Z,96.60
2022-12-15T06:49:09.089Z,96.60
2022-12-15T06:51:37.802Z,96.60
2022-12-15T06:54:04.792Z,96.60
2022-12-15T06:56:38.782Z,96.60
2022-12-15T06:59:07.394Z,96.60
2022-12-15T07:01:34.553Z,96.60
2022-12-15T07:04:06.198Z,96.60
2022-12-15T07:06:37.844Z,96.60
2022-12-15T07:09:07.900Z,96.60
2022-12-15T07:11:35.191Z,96.60
2022-12-15T07:14:02.076Z,96.60
2022-12-15T07:16:28.836Z,96.60
2022-12-15T07:18:55.721Z,96.60
2022-12-15T07:21:22.466Z,96.60
2022-12-15T07:23:57.483Z,96.60
2022-12-15T07:26:25.008Z,96.60
2022-12-15T07:29:05.172Z,96.60
2022-12-15T07:31:39.012Z,96.60
2022-12-15T07:34:07.172Z,96.60
2022-12-15T07:36:34.856Z,96.60
2022-12-15T07:39:04.876Z,96.60
2022-12-15T07:41:38.253Z,96.60
2022-12-15T07:44:06.201Z,96.60
2022-12-15T07:46:33.056Z,96.50
2022-12-15T07:49:00.078Z,96.60
2022-12-15T07:51:27.675Z,96.30
2022-12-15T07:53:54.853Z,96.10
2022-12-15T07:56:21.736Z,96.10
2022-12-15T07:58:48.716Z,95.80
2022-12-15T08:01:16.270Z,95.90
2022-12-15T08:03:43.561Z,95.80
2022-12-15T08:06:20.345Z,96.10
2022-12-15T08:08:53.930Z,95.50
2022-12-15T08:11:22.668Z,95.50
2022-12-15T08:14:02.538Z,95.40
2022-12-15T08:16:30.801Z,95.30
2022-12-15T08:18:58.800Z,94.70
2022-12-15T08:21:25.700Z,94.80
2022-12-15T08:23:52.634Z,94.70
2022-12-15T08:26:22.605Z,94.10
2022-12-15T08:28:53.983Z,94.80
2022-12-15T08:31:38.304Z,94.50
2022-12-15T08:34:12.994Z,94.30
2022-12-15T08:36:40.046Z,94.00
2022-12-15T08:39:06.795Z,94.10
2022-12-15T08:41:33.664Z,93.80
2022-12-15T08:44:01.479Z,94.30
2022-12-15T08:46:30.847Z,94.20
2022-12-15T08:48:58.347Z,93.90
2022-12-15T08:51:28.093Z,94.20
2022-12-15T08:53:56.045Z,94.70
2022-12-15T08:56:24.099Z,94.10
2022-12-15T08:58:55.787Z,93.90
2022-12-15T09:01:24.879Z,94.20
2022-12-15T09:03:53.859Z,93.90
2022-12-15T09:06:30.742Z,94.00
2022-12-15T09:08:59.817Z,94.10
2022-12-15T09:11:28.539Z,94.70
2022-12-15T09:13:56.067Z,94.70
2022-12-15T09:16:23.526Z,94.10
2022-12-15T09:18:52.785Z,94.10
2022-12-15T09:21:23.016Z,93.90
2022-12-15T09:23:51.972Z,93.30
2022-12-15T09:26:21.109Z,93.40
2022-12-15T09:28:50.140Z,92.80
2022-12-15T09:31:21.706Z,92.60
2022-12-15T09:34:04.458Z,93.00
2022-12-15T09:36:32.888Z,92.80
2022-12-15T09:39:01.929Z,92.90
2022-12-15T09:41:32.436Z,92.40
2022-12-15T09:43:59.260Z,92.20
2022-12-15T09:46:44.828Z,91.60
2022-12-15T09:49:50.666Z,92.00
2022-12-15T09:52:22.882Z,93.30
2022-12-15T09:54:49.906Z,92.30
2022-12-15T09:57:29.966Z,91.60
2022-12-15T10:00:04.924Z,91.10
2022-12-15T10:03:02.314Z,90.70
2022-12-15T10:06:21.472Z,91.20
2022-12-15T10:08:40.882Z,90.10
2022-12-15T10:11:17.308Z,90.60
2022-12-15T10:13:50.717Z,90.10
2022-12-15T10:16:29.488Z,90.00
2022-12-15T10:19:13.411Z,90.70
2022-12-15T10:21:40.743Z,90.60
2022-12-15T10:24:37.501Z,90.50
2022-12-15T10:27:08.257Z,90.00
2022-12-15T10:29:45.430Z,89.90
2022-12-15T10:32:27.034Z,90.20
2022-12-15T10:34:53.869Z,90.40
2022-12-15T10:37:21.726Z,89.10
2022-12-15T10:39:50.466Z,88.70
2022-12-15T10:42:23.290Z,88.80
2022-12-15T10:45:01.544Z,89.20
2022-12-15T10:47:36.595Z,89.10
2022-12-15T10:50:25.139Z,89.40
2022-12-15T10:52:52.224Z,89.20
2022-12-15T10:55:42.119Z,89.10
2022-12-15T10:58:21.482Z,89.30
2022-12-15T11:01:04.681Z,89.10
2022-12-15T11:03:39.791Z,89.20
2022-12-15T11:06:22.134Z,89.00
2022-12-15T11:08:53.070Z,88.40
2022-12-15T11:11:52.087Z,88.40
2022-12-15T11:14:24.176Z,89.10
2022-12-15T11:16:56.488Z,89.80
2022-12-15T11:19:36.154Z,90.30
2022-12-15T11:22:20.290Z,90.20
2022-12-15T11:24:57.052Z,90.60
2022-12-15T11:27:33.717Z,90.10
2022-12-15T11:30:18.942Z,90.90
2022-12-15T11:33:03.976Z,90.10
2022-12-15T11:35:53.753Z,90.20
2022-12-15T11:39:04.634Z,90.30
2022-12-15T11:41:56.415Z,89.90
2022-12-15T11:44:59.704Z,89.10
2022-12-15T11:47:33.365Z,89.60
2022-12-15T11:50:37.236Z,89.30
2022-12-15T11:53:29.407Z,89.00
2022-12-15T11:56:21.500Z,87.90
2022-12-15T11:59:01.454Z,88.60
2022-12-15T12:01:28.845Z,88.90
2022-12-15T12:04:28.619Z,90.70
2022-12-15T12:07:09.348Z,90.20
2022-12-15T12:10:00.904Z,90.50
2022-12-15T12:12:58.766Z,91.10
2022-12-15T12:15:37.797Z,91.40
2022-12-15T12:18:23.063Z,90.90
2022-12-15T12:20:58.704Z,90.50
2022-12-15T12:23:31.393Z,91.00
2022-12-15T12:26:13.301Z,91.20
2022-12-15T12:28:41.925Z,91.40
2022-12-15T12:31:36.713Z,91.40
2022-12-15T12:34:22.812Z,91.10
2022-12-15T12:36:50.643Z,90.60
2022-12-15T12:39:21.531Z,91.50
2022-12-15T12:42:26.506Z,91.20
2022-12-15T12:44:53.498Z,90.90
2022-12-15T12:47:44.665Z,91.00
2022-12-15T12:50:25.240Z,91.00
2022-12-15T12:53:02.082Z,89.40
2022-12-15T12:55:37.984Z,89.80
2022-12-15T12:58:32.526Z,90.70
2022-12-15T13:01:11.261Z,90.00
2022-12-15T13:03:43.405Z,89.40
2022-12-15T13:06:42.274Z,89.50
2022-12-15T13:09:39.386Z,89.50
2022-12-15T13:12:53.203Z,90.00
2022-12-15T13:15:45.706Z,90.20
2022-12-15T13:18:21.106Z,91.00
2022-12-15T13:21:03.756Z,90.60
2022-12-15T13:23:41.503Z,90.70
2022-12-15T13:26:08.391Z,90.50
2022-12-15T13:28:39.062Z,91.00
2022-12-15T13:31:21.144Z,91.30
2022-12-15T13:33:51.276Z,91.40
2022-12-15T13:36:40.041Z,91.10
2022-12-15T13:39:13.002Z,91.80
2022-12-15T13:42:15.694Z,92.60
2022-12-15T13:44:44.343Z,92.40
2022-12-15T13:47:27.979Z,93.20
2022-12-15T13:50:28.223Z,93.40
2022-12-15T13:53:18.446Z,93.60
2022-12-15T13:56:05.577Z,93.70
2022-12-15T13:58:40.874Z,93.80
2022-12-15T14:01:31.691Z,93.40
2022-12-15T14:04:16.231Z,93.90
2022-12-15T14:06:50.842Z,94.30
2022-12-15T14:09:47.170Z,94.40
2022-12-15T14:12:15.976Z,94.90
2022-12-15T14:14:48.937Z,95.30
2022-12-15T14:17:18.009Z,95.70
2022-12-15T14:19:51.046Z,96.00
2022-12-15T14:22:27.530Z,96.00
2022-12-15T14:25:21.841Z,95.90
2022-12-15T14:27:50.943Z,96.00
2022-12-15T14:30:37.314Z,96.50
2022-12-15T14:33:11.661Z,95.90
2022-12-15T14:35:50.138Z,96.40
2022-12-15T14:38:21.705Z,96.60
2022-12-15T14:40:50.830Z,96.60
2022-12-15T14:43:24.436Z,96.60
2022-12-15T14:45:55.471Z,96.60
2022-12-15T14:48:42.950Z,96.60
2022-12-15T14:51:17.405Z,96.60
2022-12-15T14:53:53.179Z,96.60
2022-12-15T14:56:25.782Z,96.60
2022-12-15T14:59:20.137Z,96.00
2022-12-15T15:02:13.886Z,95.90
2022-12-15T15:04:41.577Z,96.30
2022-12-15T15:07:17.724Z,96.60
2022-12-15T15:09:46.411Z,96.50
2022-12-15T15:12:22.416Z,96.40
2022-12-15T15:15:00.320Z,95.80
2022-12-15T15:17:36.977Z,96.20
2022-12-15T15:20:15.396Z,96.20
2022-12-15T15:22:45.347Z,96.10
2022-12-15T15:25:30.819Z,96.20
2022-12-15T15:28:11.540Z,96.40
2022-12-15T15:30:57.443Z,96.30
2022-12-15T15:33:25.331Z,96.20
2022-12-15T15:36:02.911Z,96.30
2022-12-15T15:38:35.964Z,96.60
2022-12-15T15:41:18.968Z,96.60
2022-12-15T15:43:46.688Z,96.60
2022-12-15T15:46:20.785Z,96.60
2022-12-15T15:49:05.938Z,96.60
2022-12-15T15:51:37.695Z,96.60
2022-12-15T15:54:08.213Z,96.60
2022-12-15T15:56:35.046Z,96.60
2022-12-15T15:59:13.672Z,96.60
2022-12-15T16:01:46.509Z,96.60
2022-12-15T16:04:13.473Z,96.60
2022-12-15T16:06:46.689Z,96.60
2022-12-15T16:09:15.625Z,96.60
2022-12-15T16:11:43.221Z,96.60
2022-12-15T16:14:18.450Z,96.60
2022-12-15T16:16:45.639Z,96.60
2022-12-15T16:19:12.442Z,96.60
2022-12-15T16:21:40.554Z,96.60
2022-12-15T16:24:15.611Z,96.60
2022-12-15T16:26:47.774Z,96.60
2022-12-15T16:29:16.568Z,96.60
2022-12-15T16:31:46.492Z,96.60
2022-12-15T16:34:16.702Z,96.60
2022-12-15T16:36:54.142Z,96.60
2022-12-15T16:39:30.803Z,96.60
2022-12-15T16:41:57.909Z,96.60
2022-12-15T16:44:29.519Z,96.50
2022-12-15T16:46:57.197Z,96.60
2022-12-15T16:49:24.361Z,96.60
2022-12-15T16:51:53.586Z,96.60
2022-12-15T16:54:28.903Z,96.60
2022-12-15T16:56:57.744Z,96.60
2022-12-15T16:59:33.617Z,96.60
2022-12-15T17:02:01.958Z,96.50
2022-12-15T17:04:29.242Z,96.60
2022-12-15T17:06:56.023Z,96.60
2022-12-15T17:09:25.473Z,96.60
2022-12-15T17:11:52.754Z,96.60
2022-12-15T17:14:19.482Z,96.60
2022-12-15T17:16:46.241Z,96.50
2022-12-15T17:19:19.210Z,96.30
2022-12-15T17:21:48.704Z,96.60
2022-12-15T17:24:18.020Z,96.60
2022-12-15T17:26:45.069Z,96.40
2022-12-15T17:29:19.005Z,96.00
2022-12-15T17:31:46.073Z,96.40
2022-12-15T17:34:32.715Z,95.90
2022-12-15T17:37:02.281Z,96.20
2022-12-15T17:39:30.286Z,96.30
2022-12-15T17:42:00.428Z,96.30
2022-12-15T17:44:34.468Z,96.20
2022-12-15T17:47:05.403Z,95.90
2022-12-15T17:49:35.917Z,95.90
2022-12-15T17:52:24.075Z,95.80
2022-12-15T17:54:52.108Z,95.80
2022-12-15T17:57:18.938Z,95.50
2022-12-15T17:59:45.840Z,95.70
2022-12-15T18:02:14.237Z,95.70
2022-12-15T18:04:41.738Z,96.20
2022-12-15T18:07:20.826Z,96.00
2022-12-15T18:09:49.022Z,95.60
2022-12-15T18:12:22.362Z,95.40
2022-12-15T18:14:50.000Z,94.70
2022-12-15T18:17:16.948Z,95.10
2022-12-15T18:19:43.903Z,95.80
2022-12-15T18:22:22.808Z,95.80
2022-12-15T18:24:51.635Z,96.00
2022-12-15T18:27:26.532Z,95.60
2022-12-15T18:29:53.922Z,95.30
2022-12-15T18:32:25.531Z,95.60
2022-12-15T18:34:53.626Z,95.90
2022-12-15T18:37:22.891Z,95.90
2022-12-15T18:39:50.784Z,96.10
2022-12-15T18:42:20.327Z,96.30
2022-12-15T18:44:49.921Z,96.20
2022-12-15T18:47:22.338Z,96.60
2022-12-15T18:49:49.375Z,96.60
2022-12-15T18:52:26.504Z,96.60
2022-12-15T18:54:55.663Z,96.60
2022-12-15T18:57:35.805Z,96.60
2022-12-15T19:00:07.857Z,96.60
2022-12-15T19:02:34.711Z,96.60
2022-12-15T19:05:01.578Z,96.60
2022-12-15T19:07:28.390Z,96.60
2022-12-15T19:09:55.400Z,96.60
2022-12-15T19:12:22.284Z,96.60
2022-12-15T19:14:51.419Z,96.60
2022-12-15T19:17:41.773Z,96.00
2022-12-15T19:20:39.282Z,95.20
2022-12-15T19:23:07.053Z,95.60
2022-12-15T19:25:35.120Z,95.30
2022-12-15T19:28:02.229Z,95.40
2022-12-15T19:30:33.157Z,95.60
2022-12-15T19:33:01.728Z,95.50
2022-12-15T19:35:29.218Z,95.70
2022-12-15T19:37:58.006Z,95.70
2022-12-15T19:40:32.646Z,95.90
2022-12-15T19:43:00.370Z,95.90
2022-12-15T19:45:30.172Z,95.90
2022-12-15T19:47:57.952Z,95.90
2022-12-15T19:50:36.604Z,95.70
2022-12-15T19:53:25.456Z,95.40
2022-12-15T19:55:55.428Z,95.50
2022-12-15T19:58:33.766Z,95.70
2022-12-15T20:01:04.430Z,96.10
2022-12-15T20:03:32.525Z,95.90
2022-12-15T20:06:01.942Z,95.50
2022-12-15T20:08:34.347Z,95.60
2022-12-15T20:11:01.316Z,95.60
2022-12-15T20:13:38.390Z,95.00
2022-12-15T20:16:05.348Z,95.30
2022-12-15T20:18:32.519Z,95.70
2022-12-15T20:20:59.703Z,95.50
2022-12-15T20:23:26.806Z,95.00
2022-12-15T20:25:56.421Z,94.70
2022-12-15T20:28:26.201Z,94.90
2022-12-15T20:30:53.664Z,94.40
2022-12-15T20:33:20.637Z,94.50
2022-12-15T20:35:48.955Z,94.50
2022-12-15T20:38:27.789Z,94.70
2022-12-15T20:40:55.245Z,94.70
2022-12-15T20:43:23.641Z,95.00
2022-12-15T20:46:00.240Z,94.40
2022-12-15T20:48:27.124Z,93.60
2022-12-15T20:50:53.926Z,93.10
2022-12-15T20:53:23.977Z,93.40
2022-12-15T20:55:52.812Z,93.90
2022-12-15T20:58:20.481Z,94.80
2022-12-15T21:00:48.703Z,94.60
2022-12-15T21:03:27.715Z,94.70
2022-12-15T21:05:56.366Z,94.40
2022-12-15T21:08:27.101Z,94.20
2022-12-15T21:10:55.903Z,94.70
2022-12-15T21:13:26.404Z,95.10
2022-12-15T21:15:53.950Z,95.40
2022-12-15T21:18:57.621Z,95.40
2022-12-15T21:21:20.774Z,95.30
2022-12-15T21:23:47.748Z,95.60
2022-12-15T21:26:29.560Z,94.60
2022-12-15T21:29:01.813Z,94.10
2022-12-15T21:31:28.647Z,94.20
2022-12-15T21:33:55.459Z,94.30
2022-12-15T21:36:22.414Z,94.40
2022-12-15T21:38:50.872Z,94.60
2022-12-15T21:41:22.100Z,94.30
2022-12-15T21:43:49.793Z,94.50
2022-12-15T21:46:27.546Z,94.40
2022-12-15T21:49:14.316Z,94.10
2022-12-15T21:51:57.926Z,94.50
2022-12-15T21:54:32.452Z,95.50
2022-12-15T21:56:59.535Z,95.90
2022-12-15T21:59:29.666Z,96.00
2022-12-15T22:01:57.174Z,96.00
2022-12-15T22:04:30.330Z,95.90
2022-12-15T22:06:58.537Z,95.50
2022-12-15T22:09:25.469Z,95.30
2022-12-15T22:11:54.074Z,94.60
2022-12-15T22:14:32.995Z,94.30
2022-12-15T22:17:17.086Z,94.00
2022-12-15T22:19:43.953Z,93.30
2022-12-15T22:22:11.477Z,93.10
2022-12-15T22:24:38.500Z,92.90
2022-12-15T22:27:23.094Z,92.60
2022-12-15T22:29:50.350Z,92.40
2022-12-15T22:32:20.854Z,92.40
2022-12-15T22:34:48.527Z,92.20
2022-12-15T22:37:28.663Z,91.80
2022-12-15T22:39:55.405Z,91.70
2022-12-15T22:42:22.172Z,91.20
2022-12-15T22:44:49.005Z,90.90
2022-12-15T22:47:15.833Z,90.40
2022-12-15T22:49:42.943Z,89.60
2022-12-15T22:52:17.381Z,89.20
2022-12-15T22:54:45.921Z,89.30
2022-12-15T22:57:25.925Z,89.00
2022-12-15T23:00:11.557Z,89.00
2022-12-15T23:02:41.660Z,88.50
2022-12-15T23:05:09.412Z,88.50
2022-12-15T23:07:36.292Z,88.20
2022-12-15T23:10:22.593Z,88.10
2022-12-15T23:12:54.291Z,88.90
2022-12-15T23:15:41.530Z,89.40
2022-12-15T23:18:08.598Z,90.70
2022-12-15T23:20:35.647Z,91.20
2022-12-15T23:23:09.758Z,91.40
2022-12-15T23:25:44.001Z,90.60
2022-12-15T23:28:10.773Z,91.60
2022-12-15T23:30:37.493Z,92.10
2022-12-15T23:33:04.421Z,91.70
2022-12-15T23:35:31.395Z,91.70
2022-12-15T23:37:58.766Z,91.20
2022-12-15T23:40:25.781Z,90.20
2022-12-15T23:42:53.608Z,89.20
2022-12-15T23:45:20.829Z,89.30
2022-12-15T23:47:47.690Z,89.00
2022-12-15T23:50:14.819Z,88.40
2022-12-15T23:52:41.742Z,87.90
2022-12-15T23:55:11.486Z,88.00
2022-12-15T23:57:39.326Z,88.00
